CES4 weather

Westlock Airport
Westlock, Alberta, Canada

Public forecast

Using degrees Celsius for public forecast. Weather courtesy of forecast.io.

METAR (pilot weather report)

Closest report is Edmonton / Villeneuve Airport, 28.8 nm (53.3 km) S. Retrieved 2019/07/21 20:00 UTC (15 minutes ago):

CZVL 212000Z AUTO 16012KT 9SM FEW040 23/14 A3017 RMK SLP219 DENSITY ALT 3400FT

TAF (pilot weather forecast)

Closest forecast is Edmonton / Villeneuve Airport, 28.8 nm (53.3 km) S. Retrieved 2019/07/21 18:00 UTC (2 hours ago):

TAF CZVL 211739Z 2118/2206 18010KT P6SM FEW030 FEW250 BECMG 2118/2120 15012G22KT RMK FCST BASED ON AUTO OBS. NXT FCST BY 220000Z